Time;durP1;ratioP1;P1;durP2;ratioP2;P2;SDS_P1;SDS_P2;PMS_P1;PMS_P2;Temp;Humidity;BMP_temperature;BMP_pressure;BME280_temperature;BME280_humidity;BME280_pressure;Samples;Min_cycle;Max_cycle;Signal;HPM_P1;HPM_P2
2024/04/09 00:02:09;;;;;;;12.40;8.30;;;;;;;10.92;100.00;100800.11;105895;1257;60435;-57
2024/04/09 00:04:37;;;;;;;10.10;7.40;;;;;;;10.91;100.00;100802.33;105848;1256;73788;-56
2024/04/09 00:07:06;;;;;;;14.10;8.00;;;;;;;10.88;100.00;100807.11;105864;1256;67368;-56
2024/04/09 00:09:33;;;;;;;12.80;8.00;;;;;;;10.86;100.00;100807.02;105792;1257;72674;-56
2024/04/09 00:12:07;;;;;;;12.10;7.40;;;;;;;10.82;100.00;100806.62;105857;1257;60410;-57
2024/04/09 00:14:37;;;;;;;13.10;8.00;;;;;;;10.79;100.00;100804.48;105806;1255;60360;-56
2024/04/09 00:17:05;;;;;;;15.20;8.00;;;;;;;10.78;100.00;100809.51;105875;1256;74314;-56
2024/04/09 00:19:32;;;;;;;10.50;7.20;;;;;;;10.75;100.00;100811.92;105838;1257;65021;-57
2024/04/09 00:22:01;;;;;;;11.10;7.50;;;;;;;10.71;100.00;100813.45;105397;1257;72864;-57
2024/04/09 00:24:31;;;;;;;14.80;7.90;;;;;;;10.68;100.00;100818.12;105815;1250;60359;-56
2024/04/09 00:27:01;;;;;;;24.70;8.40;;;;;;;10.67;100.00;100820.59;105791;1257;60895;-58
2024/04/09 00:29:29;;;;;;;14.10;7.90;;;;;;;10.67;100.00;100823.44;105941;1255;72969;-57
2024/04/09 00:31:56;;;;;;;12.10;8.10;;;;;;;10.66;100.00;100821.98;105719;1256;66467;-56
2024/04/09 00:34:24;;;;;;;11.30;7.70;;;;;;;10.62;100.00;100821.02;105524;1251;72743;-56
2024/04/09 00:36:53;;;;;;;11.70;7.30;;;;;;;10.58;100.00;100820.09;105812;1256;60482;-56
2024/04/09 00:39:26;;;;;;;11.30;7.40;;;;;;;10.54;100.00;100818.77;105918;1252;60454;-57
2024/04/09 00:41:54;;;;;;;12.60;6.20;;;;;;;10.50;100.00;100822.90;105772;1256;73877;-56
2024/04/09 00:44:23;;;;;;;10.20;6.80;;;;;;;10.46;100.00;100827.27;105825;1257;65711;-57
2024/04/09 00:54:35;;;;;;;9.70;5.50;;;;;;;10.41;100.00;100830.41;102532;1292;600359;-56
2024/04/09 00:57:04;;;;;;;10.40;5.20;;;;;;;10.41;100.00;100830.52;104513;1272;59677;-55
2024/04/09 00:59:34;;;;;;;10.10;5.30;;;;;;;10.43;100.00;100830.70;104840;1264;59580;-55
2024/04/09 01:02:04;;;;;;;10.20;4.70;;;;;;;10.44;100.00;100829.59;104946;1267;73125;-60
2024/04/09 01:04:31;;;;;;;7.40;4.90;;;;;;;10.45;100.00;100833.01;105033;1264;66161;-55
2024/04/09 01:06:59;;;;;;;8.10;5.00;;;;;;;10.45;100.00;100832.98;104830;1270;72664;-55
2024/04/09 01:09:27;;;;;;;11.80;4.80;;;;;;;10.43;100.00;100833.46;105348;1260;60407;-54
2024/04/09 01:11:55;;;;;;;9.20;4.80;;;;;;;10.41;100.00;100832.98;105486;1254;59951;-57
2024/04/09 01:14:22;;;;;;;13.00;5.60;;;;;;;10.41;100.00;100835.64;105440;1254;72976;-57
2024/04/09 01:16:50;;;;;;;10.10;4.60;;;;;;;10.40;100.00;100834.59;105241;1254;66896;-55
2024/04/09 01:19:17;;;;;;;11.60;5.10;;;;;;;10.37;100.00;100835.70;105426;1263;72706;-57
2024/04/09 01:21:47;;;;;;;7.50;4.20;;;;;;;10.37;100.00;100834.48;105668;1257;59949;-58
2024/04/09 01:24:15;;;;;;;7.70;4.50;;;;;;;10.37;100.00;100835.17;105497;1257;60355;-57
2024/04/09 01:26:43;;;;;;;12.00;5.20;;;;;;;10.36;100.00;100839.84;105570;1254;72025;-55
2024/04/09 01:29:11;;;;;;;8.70;4.30;;;;;;;10.35;100.00;100834.25;105460;1254;65706;-57
2024/04/09 01:31:39;;;;;;;11.60;5.50;;;;;;;10.34;100.00;100831.58;105422;1254;72695;-55
2024/04/09 01:34:09;;;;;;;9.60;4.50;;;;;;;10.34;100.00;100832.23;105476;1257;60456;-55
2024/04/09 01:36:37;;;;;;;6.80;4.30;;;;;;;10.33;100.00;100835.67;105541;1260;60412;-56
2024/04/09 01:39:08;;;;;;;8.10;4.90;;;;;;;10.28;100.00;100834.32;105544;1260;72074;-55
2024/04/09 01:41:36;;;;;;;7.50;4.30;;;;;;;10.23;100.00;100830.11;105650;1254;67879;-57
2024/04/09 01:44:04;;;;;;;8.80;4.90;;;;;;;10.19;100.00;100829.55;105419;1260;72671;-57
2024/04/09 01:46:32;;;;;;;9.20;4.60;;;;;;;10.15;100.00;100826.99;105596;1258;60430;-55
2024/04/09 01:49:00;;;;;;;7.10;4.20;;;;;;;10.12;100.00;100826.30;105545;1257;60434;-55
2024/04/09 01:51:28;;;;;;;8.80;4.70;;;;;;;10.09;100.00;100826.58;105365;1257;72635;-56
2024/04/09 01:53:56;;;;;;;10.40;4.50;;;;;;;10.05;100.00;100827.98;105689;1254;67060;-56
2024/04/09 01:56:24;;;;;;;7.80;4.20;;;;;;;10.01;100.00;100832.17;105556;1254;72709;-56
2024/04/09 01:58:51;;;;;;;7.60;4.10;;;;;;;9.99;100.00;100833.52;105415;1260;60552;-57
2024/04/09 02:01:21;;;;;;;7.80;4.10;;;;;;;9.98;100.00;100836.14;105666;1254;60462;-57
2024/04/09 02:03:49;;;;;;;6.70;4.20;;;;;;;9.95;100.00;100836.27;105304;1254;73083;-57
2024/04/09 02:06:17;;;;;;;11.10;5.40;;;;;;;9.92;100.00;100836.59;105733;1257;66936;-58
2024/04/09 02:08:45;;;;;;;9.40;4.80;;;;;;;9.90;100.00;100838.88;105392;1254;73483;-57
2024/04/09 02:11:13;;;;;;;10.20;4.20;;;;;;;9.87;100.00;100838.66;105378;1254;61677;-57
2024/04/09 02:13:41;;;;;;;7.20;4.40;;;;;;;9.85;100.00;100838.75;105451;1254;60383;-57
2024/04/09 02:16:08;;;;;;;7.70;5.10;;;;;;;9.81;100.00;100843.71;105405;1258;73911;-57
2024/04/09 02:18:36;;;;;;;9.90;5.20;;;;;;;9.75;100.00;100846.58;105406;1254;68078;-55
2024/04/09 02:21:07;;;;;;;7.40;4.60;;;;;;;9.68;100.00;100854.54;105600;1259;72692;-57
2024/04/09 02:23:36;;;;;;;6.70;4.20;;;;;;;9.61;100.00;100853.79;105766;1260;60555;-57
2024/04/09 02:26:04;;;;;;;9.90;4.50;;;;;;;9.55;100.00;100855.64;105711;1257;60456;-56
2024/04/09 02:28:32;;;;;;;6.80;4.50;;;;;;;9.47;100.00;100856.94;105330;1259;74468;-55
2024/04/09 02:31:00;;;;;;;9.00;4.60;;;;;;;9.41;100.00;100858.48;105532;1257;65629;-55
2024/04/09 02:33:28;;;;;;;8.80;5.30;;;;;;;9.35;100.00;100857.37;105461;1260;71441;-56
2024/04/09 02:43:38;;;;;;;10.60;5.70;;;;;;;9.21;100.00;100862.50;102529;1290;600681;-56
2024/04/09 02:46:05;;;;;;;8.40;5.50;;;;;;;9.17;100.00;100864.76;104676;1269;60492;-56
2024/04/09 02:48:33;;;;;;;13.00;5.40;;;;;;;9.18;100.00;100865.08;104942;1264;60037;-56
2024/04/09 02:51:05;;;;;;;8.40;5.40;;;;;;;9.17;100.00;100865.56;105168;1270;72855;-55
2024/04/09 02:53:33;;;;;;;7.80;4.50;;;;;;;9.15;100.00;100867.43;104780;1264;66045;-56
2024/04/09 02:56:01;;;;;;;9.40;5.10;;;;;;;9.14;100.00;100867.15;104919;1269;72781;-56
2024/04/09 02:58:29;;;;;;;10.20;5.40;;;;;;;9.17;100.00;100866.77;105035;1264;60330;-56
2024/04/09 03:01:02;;;;;;;9.00;5.30;;;;;;;9.17;100.00;100867.45;104979;1261;60067;-59
2024/04/09 03:03:29;;;;;;;9.20;5.40;;;;;;;9.17;100.00;100871.34;104805;1261;73102;-56
2024/04/09 03:06:04;;;;;;;10.20;5.20;;;;;;;9.21;100.00;100870.80;105380;1266;65666;-56
2024/04/09 03:08:31;;;;;;;8.80;5.70;;;;;;;9.28;100.00;100872.54;105242;1261;72718;-58
2024/04/09 03:10:59;;;;;;;8.10;5.30;;;;;;;9.38;100.00;100874.61;105367;1261;60628;-56
2024/04/09 03:13:26;;;;;;;8.10;5.40;;;;;;;9.52;100.00;100876.38;105250;1266;60325;-56
2024/04/09 03:15:54;;;;;;;6.60;4.60;;;;;;;9.68;100.00;100876.27;105161;1262;73907;-57
2024/04/09 03:18:22;;;;;;;6.70;4.30;;;;;;;9.89;100.00;100873.58;105062;1261;66898;-56
2024/04/09 03:20:57;;;;;;;13.70;4.60;;;;;;;10.13;100.00;100874.05;105700;1255;72720;-56
2024/04/09 03:23:25;;;;;;;6.90;4.30;;;;;;;10.47;100.00;100877.09;105389;1260;60447;-56
2024/04/09 03:25:52;;;;;;;8.70;5.00;;;;;;;10.87;100.00;100880.30;105798;1261;60344;-57
2024/04/09 03:28:20;;;;;;;9.80;4.40;;;;;;;11.32;100.00;100873.78;105630;1259;73038;-57
2024/04/09 03:30:57;;;;;;;10.60;5.20;;;;;;;11.75;100.00;100872.55;105166;1260;67073;-56
2024/04/09 03:33:25;;;;;;;10.10;5.10;;;;;;;12.37;100.00;100870.27;105470;1255;72765;-56
2024/04/09 03:35:58;;;;;;;7.60;5.10;;;;;;;13.08;100.00;100876.26;105583;1255;62243;-57
2024/04/09 03:38:26;;;;;;;7.30;4.20;;;;;;;13.88;100.00;100870.52;105417;1260;60552;-57
2024/04/09 03:41:01;;;;;;;9.60;4.60;;;;;;;14.68;100.00;100864.23;105769;1254;74352;-56
2024/04/09 03:43:28;;;;;;;7.80;4.10;;;;;;;15.50;100.00;100860.89;105682;1251;66763;-57
2024/04/09 03:46:06;;;;;;;6.90;4.10;;;;;;;16.26;100.00;100857.25;105773;1251;71618;-57
2024/04/09 03:48:42;;;;;;;8.50;5.00;;;;;;;17.06;100.00;100863.11;105756;1256;60654;-56
2024/04/09 03:51:11;;;;;;;8.50;4.80;;;;;;;17.82;100.00;100859.05;105700;1257;60495;-58
2024/04/09 03:53:39;;;;;;;10.80;5.00;;;;;;;18.59;96.63;100854.73;105818;1251;72626;-57
2024/04/09 03:56:07;;;;;;;7.40;4.30;;;;;;;19.35;84.01;100856.09;105907;1255;66902;-57
2024/04/09 03:58:38;;;;;;;7.50;4.30;;;;;;;20.05;71.42;100855.88;105816;1255;71770;-57
2024/04/09 04:01:06;;;;;;;10.70;4.60;;;;;;;20.67;61.71;100860.00;105941;1257;60558;-58
2024/04/09 04:03:39;;;;;;;9.50;4.70;;;;;;;21.27;56.09;100862.30;105953;1255;60367;-57
2024/04/09 04:06:07;;;;;;;9.70;4.70;;;;;;;21.89;51.29;100861.34;105922;1251;75371;-57
2024/04/09 04:08:36;;;;;;;7.10;5.00;;;;;;;22.44;47.50;100862.00;105858;1256;65664;-57
2024/04/09 04:11:05;;;;;;;5.70;4.00;;;;;;;23.01;45.07;100860.15;105807;1256;73379;-57
2024/04/09 04:13:34;;;;;;;7.00;4.30;;;;;;;23.59;42.92;100859.94;105785;1251;60383;-57
2024/04/09 04:16:05;;;;;;;9.10;4.10;;;;;;;24.16;40.80;100856.66;106075;1251;60434;-57
2024/04/09 04:18:43;;;;;;;8.10;4.60;;;;;;;24.60;38.25;100857.30;105845;1257;73753;-58
2024/04/09 04:21:13;;;;;;;6.70;4.20;;;;;;;24.93;37.00;100855.30;105799;1251;66904;-55
2024/04/09 04:23:44;;;;;;;7.10;4.50;;;;;;;25.26;36.01;100855.91;105812;1251;72771;-58
2024/04/09 04:26:17;;;;;;;8.00;5.00;;;;;;;25.65;35.28;100857.94;105850;1257;60549;-58
2024/04/09 04:28:45;;;;;;;10.60;5.90;;;;;;;26.00;34.31;100853.57;105601;1251;60513;-58
2024/04/09 04:31:14;;;;;;;9.50;4.90;;;;;;;26.35;33.96;100847.16;105861;1256;73895;-55
2024/04/09 04:41:28;;;;;;;8.20;5.30;;;;;;;27.83;31.45;100847.33;102461;1292;600596;-58
2024/04/09 04:43:55;;;;;;;7.70;4.70;;;;;;;28.25;30.60;100843.85;104757;1267;59851;-57
2024/04/09 04:46:24;;;;;;;7.10;5.20;;;;;;;28.63;29.80;100842.38;104938;1263;60077;-58
2024/04/09 04:48:51;;;;;;;10.20;5.10;;;;;;;29.08;29.44;100841.36;104695;1263;71748;-57
2024/04/09 04:51:19;;;;;;;8.50;5.10;;;;;;;29.44;28.60;100843.04;104801;1264;65067;-57
2024/04/09 04:53:47;;;;;;;9.40;5.00;;;;;;;29.62;27.92;100846.60;105002;1267;71449;-57
2024/04/09 04:56:14;;;;;;;7.30;4.40;;;;;;;29.81;27.44;100848.19;105001;1267;218677;-58
2024/04/09 04:58:42;;;;;;;7.20;4.60;;;;;;;30.00;27.25;100847.08;104914;1264;60837;-57
2024/04/09 05:01:10;;;;;;;8.60;4.40;;;;;;;30.33;26.86;100843.09;105013;1262;71788;-58
2024/04/09 05:03:38;;;;;;;9.00;4.80;;;;;;;30.63;26.19;100840.95;105548;1256;65715;-58
2024/04/09 05:06:07;;;;;;;8.20;4.90;;;;;;;30.85;25.82;100836.22;105681;1256;71857;-58
2024/04/09 05:08:34;;;;;;;8.10;4.80;;;;;;;31.03;25.38;100836.98;105305;1254;60518;-58
2024/04/09 05:11:09;;;;;;;6.70;4.50;;;;;;;31.19;25.35;100835.39;105514;1259;60390;-58
2024/04/09 05:13:36;;;;;;;5.80;4.10;;;;;;;31.39;25.35;100832.18;105634;1260;72889;-58
2024/04/09 05:16:04;;;;;;;6.50;4.50;;;;;;;31.63;24.87;100833.10;105407;1256;66947;-58
2024/04/09 05:18:32;;;;;;;7.80;4.20;;;;;;;31.69;24.35;100834.84;105358;1257;62500;-58
2024/04/09 05:21:00;;;;;;;6.90;4.40;;;;;;;31.54;24.40;100833.25;105644;1256;60529;-58
2024/04/09 05:23:28;;;;;;;6.70;4.10;;;;;;;31.49;24.37;100829.45;105638;1260;60411;-58
2024/04/09 05:25:56;;;;;;;7.40;4.20;;;;;;;31.54;24.64;100830.98;105800;1255;73874;-60
2024/04/09 05:28:24;;;;;;;8.40;4.20;;;;;;;31.55;24.29;100828.67;105356;1254;60534;-58
2024/04/09 05:30:51;;;;;;;6.70;4.50;;;;;;;31.51;24.41;100826.95;105352;1260;71597;-57
2024/04/09 05:33:19;;;;;;;9.10;4.70;;;;;;;31.40;24.30;100828.36;105329;1256;60562;-57
2024/04/09 05:35:47;;;;;;;7.00;4.40;;;;;;;30.96;24.55;100836.48;105410;1254;61770;-59
2024/04/09 05:38:15;;;;;;;7.30;4.50;;;;;;;30.30;25.02;100841.00;105380;1256;76756;-57
2024/04/09 05:40:42;;;;;;;6.90;4.30;;;;;;;29.70;25.78;100841.82;105682;1256;67278;-57
2024/04/09 05:43:10;;;;;;;10.70;5.00;;;;;;;29.24;26.43;100845.52;105135;1256;73143;-58
2024/04/09 05:45:37;;;;;;;7.70;4.70;;;;;;;28.90;26.78;100845.86;105350;1260;60514;-58
2024/04/09 05:48:06;;;;;;;8.40;4.60;;;;;;;28.58;26.89;100848.40;105659;1255;60633;-58
2024/04/09 05:50:34;;;;;;;6.60;4.20;;;;;;;28.30;27.54;100846.54;105165;1257;74444;-58
2024/04/09 05:53:02;;;;;;;6.90;3.80;;;;;;;28.18;27.55;100846.25;105274;1255;65588;-58
2024/04/09 05:55:30;;;;;;;10.30;4.60;;;;;;;28.23;27.50;100846.19;105535;1256;72794;-58
2024/04/09 05:57:57;;;;;;;5.50;4.30;;;;;;;28.49;27.42;100846.43;105414;1260;61935;-58
2024/04/09 06:00:25;;;;;;;9.20;4.20;;;;;;;28.68;27.04;100846.70;105408;1260;62984;-58
2024/04/09 06:02:54;;;;;;;6.20;4.40;;;;;;;28.60;27.25;100845.36;105234;1257;75260;-59
2024/04/09 06:05:22;;;;;;;7.40;4.90;;;;;;;28.47;27.57;100846.71;105451;1259;70050;-57
2024/04/09 06:07:49;;;;;;;6.90;4.20;;;;;;;28.27;27.91;100850.02;105232;1261;75701;-57
2024/04/09 06:10:18;;;;;;;5.50;4.30;;;;;;;28.15;28.32;100855.18;105457;1259;61536;-58
2024/04/09 06:12:47;;;;;;;7.40;4.40;;;;;;;28.20;28.48;100849.34;105268;1256;61873;-57
2024/04/09 06:15:15;;;;;;;6.20;4.40;;;;;;;28.28;28.62;100845.43;105264;1260;76310;-58
2024/04/09 06:17:44;;;;;;;8.40;4.20;;;;;;;28.43;28.78;100845.10;105379;1257;69870;-57
2024/04/09 06:20:14;;;;;;;9.00;4.60;;;;;;;28.57;28.56;100846.64;105576;1255;75215;-58
2024/04/09 06:22:41;;;;;;;6.70;4.50;;;;;;;28.74;28.49;100844.52;105312;1261;62066;-58
2024/04/09 06:25:09;;;;;;;9.60;4.50;;;;;;;29.01;28.23;100843.93;105233;1261;61945;-56
2024/04/09 06:27:39;;;;;;;7.10;4.00;;;;;;;29.42;27.50;100844.93;105337;1257;72658;-57
2024/04/09 06:30:08;;;;;;;6.80;3.80;;;;;;;29.87;27.03;100844.05;105101;1256;70320;-58
2024/04/09 06:32:35;;;;;;;5.40;3.80;;;;;;;30.29;26.51;100841.34;105366;1259;73290;-58
2024/04/09 06:35:04;;;;;;;5.80;3.60;;;;;;;30.77;25.89;100842.78;105357;1257;62865;-58
2024/04/09 06:37:34;;;;;;;5.50;3.50;;;;;;;31.18;25.12;100840.53;105336;1256;62943;-58
2024/04/09 06:40:05;;;;;;;6.80;3.70;;;;;;;31.49;24.96;100838.86;105652;1260;77044;-59
2024/04/09 06:42:33;;;;;;;5.30;3.40;;;;;;;31.80;24.64;100833.90;105434;1256;60403;-58
2024/04/09 06:45:03;;;;;;;6.10;3.50;;;;;;;32.16;24.55;100832.22;105398;1260;65664;-59
2024/04/09 06:47:31;;;;;;;;;;;;;;;32.66;24.18;100830.21;105456;1256;60539;-58
2024/04/09 06:50:04;;;;;;;4.50;3.30;;;;;;;33.02;23.49;100836.23;105214;1256;60531;-58
2024/04/09 06:52:31;;;;;;;14.60;4.50;;;;;;;33.13;23.32;100838.61;105303;1260;67643;-58
2024/04/09 06:54:59;;;;;;;6.70;3.60;;;;;;;33.14;23.34;100841.44;105335;1260;61372;-58
2024/04/09 06:57:27;;;;;;;4.80;3.10;;;;;;;33.36;23.37;100839.13;105502;1256;66746;-58
2024/04/09 06:59:55;;;;;;;5.60;3.50;;;;;;;33.66;23.12;100837.99;105414;1256;60530;-59
2024/04/09 07:02:23;;;;;;;4.80;3.30;;;;;;;33.94;22.73;100837.04;105379;1255;60473;-59
2024/04/09 07:04:53;;;;;;;;;;;;;;;34.28;22.30;100836.08;105430;1256;66472;-58
2024/04/09 07:07:21;;;;;;;6.20;3.60;;;;;;;34.41;22.04;100835.96;105280;1260;60378;-58
2024/04/09 07:09:49;;;;;;;121.10;12.30;;;;;;;34.42;21.87;100833.83;105521;1256;65105;-60
2024/04/09 07:12:18;;;;;;;4.90;2.80;;;;;;;34.51;21.99;100832.13;105505;1256;60371;-58
2024/04/09 07:14:45;;;;;;;4.60;2.90;;;;;;;34.71;21.82;100832.16;105455;1256;60972;-58
2024/04/09 07:17:13;;;;;;;4.60;3.20;;;;;;;34.89;21.67;100829.45;105137;1260;67885;-59
2024/04/09 07:19:41;;;;;;;4.00;2.90;;;;;;;34.96;21.18;100828.16;105361;1256;61055;-58
2024/04/09 07:22:09;;;;;;;4.40;3.00;;;;;;;34.84;21.30;100826.42;105577;1257;66830;-58
2024/04/09 07:24:37;;;;;;;3.80;2.70;;;;;;;34.76;21.37;100825.61;105377;1259;60505;-58
2024/04/09 07:27:05;;;;;;;8.30;2.70;;;;;;;34.73;21.69;100823.31;105426;1260;60390;-58
2024/04/09 07:29:34;;;;;;;6.10;2.70;;;;;;;34.86;21.43;100817.10;105306;1256;67287;-58
2024/04/09 07:32:05;;;;;;;4.70;2.90;;;;;;;34.96;21.48;100816.79;105385;1260;60786;-58
2024/04/09 07:34:36;;;;;;;4.80;2.70;;;;;;;35.13;21.03;100818.30;105239;1256;66495;-58
2024/04/09 07:37:04;;;;;;;5.50;2.90;;;;;;;35.21;20.82;100814.03;105416;1257;60499;-60
2024/04/09 07:39:31;;;;;;;6.00;2.80;;;;;;;35.15;20.73;100814.38;105921;1251;60594;-59
2024/04/09 07:41:59;;;;;;;5.80;2.70;;;;;;;34.82;20.97;100817.52;105825;1251;66806;-59
2024/04/09 07:44:27;;;;;;;3.80;2.70;;;;;;;34.58;21.28;100819.63;105786;1251;61791;-57
2024/04/09 07:46:55;;;;;;;6.70;3.00;;;;;;;34.62;21.18;100819.59;105661;1251;66707;-57
2024/04/09 07:49:23;;;;;;;3.90;2.60;;;;;;;34.77;20.98;100812.26;105723;1253;60502;-57
2024/04/09 07:51:51;;;;;;;5.10;3.10;;;;;;;34.87;20.80;100808.71;105629;1251;60453;-57
2024/04/09 07:54:19;;;;;;;5.40;3.40;;;;;;;34.87;21.09;100806.71;105878;1253;67373;-57
2024/04/09 07:56:48;;;;;;;4.90;2.80;;;;;;;34.97;21.08;100803.81;105742;1255;60683;-57
2024/04/09 07:59:15;;;;;;;12.10;2.80;;;;;;;35.20;20.76;100801.04;105747;1256;66744;-58
2024/04/09 08:01:43;;;;;;;3.60;2.00;;;;;;;35.41;20.72;100796.02;105454;1256;60509;-57
2024/04/09 08:04:11;;;;;;;3.70;1.60;;;;;;;35.54;20.36;100797.93;105704;1251;59365;-59
2024/04/09 08:06:39;;;;;;;4.10;2.20;;;;;;;35.75;20.31;100795.79;105687;1251;66360;-58
2024/04/09 08:09:11;;;;;;;2.80;1.70;;;;;;;35.97;20.03;100789.89;105856;1256;60626;-58
2024/04/09 08:11:42;;;;;;;2.60;1.50;;;;;;;36.16;19.71;100787.42;105748;1252;65623;-57
2024/04/09 08:14:11;;;;;;;4.30;2.00;;;;;;;36.29;19.53;100785.41;105461;1256;60492;-58
2024/04/09 08:16:38;;;;;;;2.90;1.70;;;;;;;36.36;19.42;100781.67;105803;1251;60482;-57
2024/04/09 08:19:06;;;;;;;2.60;2.00;;;;;;;36.40;19.43;100781.06;105798;1256;67833;-57
2024/04/09 08:21:34;;;;;;;2.70;1.60;;;;;;;36.40;18.97;100776.02;105602;1253;60620;-58
2024/04/09 08:24:02;;;;;;;5.30;1.80;;;;;;;36.19;18.96;100775.34;105512;1253;66714;-58
2024/04/09 08:26:31;;;;;;;2.40;1.70;;;;;;;35.99;19.15;100773.30;105841;1252;60426;-58
2024/04/09 08:29:03;;;;;;;4.90;1.90;;;;;;;35.89;19.48;100770.79;105685;1256;60435;-58
2024/04/09 08:31:32;;;;;;;3.40;1.80;;;;;;;35.88;19.33;100768.60;105899;1255;67459;-57
2024/04/09 08:34:00;;;;;;;2.30;1.40;;;;;;;35.96;19.23;100766.00;105818;1253;61040;-57
2024/04/09 08:36:28;;;;;;;4.50;1.70;;;;;;;36.13;19.01;100768.05;105844;1253;66444;-58
2024/04/09 08:38:57;;;;;;;3.00;1.40;;;;;;;36.28;19.04;100763.34;105893;1252;59612;-58
2024/04/09 08:41:26;;;;;;;3.00;1.60;;;;;;;36.39;18.46;100763.66;105837;1256;60543;-57
2024/04/09 08:43:53;;;;;;;3.60;1.20;;;;;;;36.30;18.47;100761.02;105971;1251;68058;-58
2024/04/09 08:46:22;;;;;;;3.20;1.50;;;;;;;36.20;18.27;100759.11;105748;1253;60629;-58
2024/04/09 08:48:50;;;;;;;5.00;3.00;;;;;;;35.98;18.38;100760.31;105861;1255;74669;-57
2024/04/09 08:51:19;;;;;;;8.40;5.70;;;;;;;35.78;18.45;100757.00;105804;1256;61363;-57
2024/04/09 08:53:47;;;;;;;56.70;48.90;;;;;;;35.48;18.48;100760.55;105731;1253;61326;-57
2024/04/09 08:56:15;;;;;;;49.30;42.30;;;;;;;35.12;18.58;100753.80;105742;1251;68895;-58
2024/04/09 08:58:43;;;;;;;9.80;7.60;;;;;;;34.71;19.13;100754.70;105556;1257;61343;-60
2024/04/09 09:01:16;;;;;;;14.90;10.50;;;;;;;34.46;19.23;100759.83;105607;1256;65642;-59
2024/04/09 09:03:43;;;;;;;4.80;3.30;;;;;;;34.35;19.70;100755.64;105408;1253;61257;-60
2024/04/09 09:06:11;;;;;;;234.90;175.70;;;;;;;34.48;19.74;100755.67;105769;1253;61210;-59
2024/04/09 09:08:41;;;;;;;119.20;83.00;;;;;;;34.67;19.87;100751.63;105637;1251;67184;-59
2024/04/09 09:11:09;;;;;;;14.10;7.90;;;;;;;34.76;19.75;100748.92;105774;1256;61314;-59
2024/04/09 09:13:37;;;;;;;4.80;2.80;;;;;;;34.90;19.44;100748.55;105878;1253;66207;-58
2024/04/09 09:16:09;;;;;;;13.40;9.90;;;;;;;35.16;19.19;100740.27;105905;1254;61320;-59
2024/04/09 09:18:37;;;;;;;20.00;11.10;;;;;;;35.32;18.91;100737.94;105719;1251;61240;-58
2024/04/09 09:21:05;;;;;;;12.50;10.30;;;;;;;35.31;18.84;100736.30;105657;1253;68664;-58
2024/04/09 09:23:34;;;;;;;6.30;4.70;;;;;;;35.30;18.77;100735.71;105871;1255;61161;-58
2024/04/09 09:26:02;;;;;;;3.60;2.10;;;;;;;35.18;18.98;100736.56;105816;1252;66640;-59
2024/04/09 09:28:30;;;;;;;4.40;2.60;;;;;;;35.04;19.09;100736.78;105752;1255;61295;-59
2024/04/09 09:30:58;;;;;;;4.10;1.60;;;;;;;34.92;19.04;100731.80;105864;1256;61346;-59
2024/04/09 09:33:29;;;;;;;5.10;2.80;;;;;;;34.85;19.04;100729.80;105769;1256;68652;-59
2024/04/09 09:35:57;;;;;;;16.90;9.90;;;;;;;34.83;19.01;100730.68;106040;1255;61304;-59
2024/04/09 09:38:26;;;;;;;8.10;3.60;;;;;;;34.70;18.89;100728.91;105709;1255;66689;-59
2024/04/09 09:40:54;;;;;;;4.40;2.10;;;;;;;34.35;19.43;100725.56;105653;1252;61214;-59
2024/04/09 09:43:23;;;;;;;4.50;1.80;;;;;;;34.37;19.67;100721.75;105901;1253;61274;-59
2024/04/09 09:45:51;;;;;;;4.30;1.70;;;;;;;34.62;19.12;100717.62;105706;1256;68248;-59
2024/04/09 09:48:20;;;;;;;2.90;1.60;;;;;;;34.84;19.00;100713.95;105570;1253;61324;-58
2024/04/09 09:50:48;;;;;;;2.70;1.60;;;;;;;35.04;18.94;100712.13;105803;1253;67038;-56
2024/04/09 09:53:19;;;;;;;3.00;1.40;;;;;;;35.31;18.88;100714.00;105641;1251;61305;-60
2024/04/09 09:55:51;;;;;;;14.00;2.10;;;;;;;35.54;18.58;100712.16;105652;1253;61311;-60
2024/04/09 09:58:20;;;;;;;;;;;;;;;35.70;18.75;100710.63;105769;1256;68917;-58
2024/04/09 10:00:48;;;;;;;4.40;2.10;;;;;;;35.77;18.64;100710.15;105878;1256;61344;-58
2024/04/09 10:03:16;;;;;;;3.70;2.20;;;;;;;35.66;18.62;100708.33;105910;1253;66754;-58
2024/04/09 10:05:45;;;;;;;2.70;1.50;;;;;;;35.57;19.00;100705.39;105829;1252;61317;-57
2024/04/09 10:08:25;;;;;;;3.00;1.80;;;;;;;35.56;18.84;100703.95;105665;1251;61248;-57
2024/04/09 10:10:53;;;;;;;;;;;;;;;35.60;18.81;100701.59;105421;1253;67566;-58
2024/04/09 10:13:24;;;;;;;3.10;1.70;;;;;;;35.50;18.86;100703.59;105496;1256;61260;-58
2024/04/09 10:15:56;;;;;;;2.90;1.90;;;;;;;35.49;18.88;100706.19;105660;1256;65234;-58
2024/04/09 10:18:28;;;;;;;3.60;1.90;;;;;;;35.56;18.78;100699.21;106039;1253;61321;-57
2024/04/09 10:20:57;;;;;;;3.90;1.80;;;;;;;35.73;18.63;100700.81;105777;1256;61264;-58
2024/04/09 10:23:26;;;;;;;4.50;2.10;;;;;;;35.93;18.34;100695.20;105731;1253;67550;-58
2024/04/09 10:25:59;;;;;;;4.10;2.50;;;;;;;35.94;18.08;100697.23;105703;1256;68253;-58
2024/04/09 10:28:29;;;;;;;3.90;2.10;;;;;;;35.79;18.02;100690.05;106073;1254;66336;-58
2024/04/09 10:31:06;;;;;;;2.50;1.60;;;;;;;35.56;18.48;100692.25;105469;1253;61302;-57
2024/04/09 10:33:38;;;;;;;8.20;2.10;;;;;;;35.42;18.52;100688.84;105794;1252;61185;-57
2024/04/09 10:36:07;;;;;;;2.50;1.50;;;;;;;35.40;18.29;100684.98;105546;1252;68642;-58
2024/04/09 10:38:41;;;;;;;2.50;1.50;;;;;;;35.32;17.93;100686.29;105838;1256;61340;-58
2024/04/09 10:41:09;;;;;;;2.70;1.30;;;;;;;35.28;17.66;100685.23;105885;1253;66756;-57
2024/04/09 10:43:37;;;;;;;3.40;1.20;;;;;;;35.26;17.43;100677.83;105830;1255;61237;-57
2024/04/09 10:46:05;;;;;;;8.10;5.10;;;;;;;35.12;17.02;100671.94;105982;1251;61267;-58
2024/04/09 10:48:42;;;;;;;3.20;1.90;;;;;;;34.90;17.68;100673.70;105535;1253;67193;-58
2024/04/09 10:51:11;;;;;;;3.00;1.90;;;;;;;34.83;17.62;100668.39;105804;1251;61312;-57
2024/04/09 10:53:39;;;;;;;2.70;1.80;;;;;;;34.86;17.99;100664.59;105610;1253;66339;-57
2024/04/09 10:56:08;;;;;;;3.60;1.60;;;;;;;34.90;18.05;100661.48;105853;1254;61358;-58
2024/04/09 10:58:39;;;;;;;3.50;1.50;;;;;;;34.85;18.07;100664.32;105866;1253;61292;-57
2024/04/09 11:01:12;;;;;;;2.60;1.60;;;;;;;34.71;18.36;100662.10;105855;1253;68889;-57
2024/04/09 11:03:41;;;;;;;4.60;1.80;;;;;;;34.66;18.24;100659.45;105818;1251;61295;-58
2024/04/09 11:06:13;;;;;;;2.50;1.60;;;;;;;34.56;17.97;100652.70;105712;1253;65682;-58
2024/04/09 11:08:41;;;;;;;4.50;1.50;;;;;;;34.52;18.03;100652.02;105795;1253;61218;-58
2024/04/09 11:11:09;;;;;;;3.20;1.80;;;;;;;34.58;18.22;100649.52;106185;1253;61269;-58
2024/04/09 11:13:37;;;;;;;2.90;1.80;;;;;;;34.59;18.38;100645.05;105685;1256;68845;-58
2024/04/09 11:16:06;;;;;;;2.70;1.80;;;;;;;34.41;18.57;100645.66;105824;1253;61282;-58
2024/04/09 11:18:33;;;;;;;4.40;2.00;;;;;;;34.16;18.93;100648.12;105920;1252;66251;-56
2024/04/09 11:21:03;;;;;;;2.70;1.50;;;;;;;34.06;18.46;100646.70;105554;1256;61349;-56
2024/04/09 11:23:31;;;;;;;2.40;1.30;;;;;;;34.05;18.64;100643.23;105770;1253;61195;-59
2024/04/09 11:26:01;;;;;;;4.20;1.80;;;;;;;34.07;18.81;100638.92;105673;1256;68682;-58
2024/04/09 11:28:30;;;;;;;4.00;1.70;;;;;;;34.04;19.01;100636.25;105729;1256;61318;-56
2024/04/09 11:30:59;;;;;;;3.60;1.60;;;;;;;33.95;18.92;100637.36;105751;1256;65760;-56
2024/04/09 11:33:27;;;;;;;4.70;2.40;;;;;;;33.82;19.14;100641.05;105565;1255;61604;-59
2024/04/09 11:35:57;;;;;;;3.20;2.00;;;;;;;33.61;18.94;100641.98;105722;1256;61347;-58
2024/04/09 11:38:26;;;;;;;3.50;1.90;;;;;;;33.33;19.14;100636.50;105828;1253;67576;-58
2024/04/09 11:40:53;;;;;;;3.60;1.90;;;;;;;33.18;19.17;100633.73;105632;1256;61240;-59
2024/04/09 11:43:21;;;;;;;3.60;1.70;;;;;;;33.03;19.19;100628.84;105468;1254;65480;-59
2024/04/09 11:45:52;;;;;;;2.60;1.70;;;;;;;32.80;19.07;100625.42;105949;1251;61253;-58